createdAt,value
2022-11-20T00:01:29.812Z,25.77
2022-11-20T00:03:58.528Z,24.88
2022-11-20T00:06:26.134Z,24.30
2022-11-20T00:08:55.295Z,24.27
2022-11-20T00:11:23.800Z,24.10
2022-11-20T00:13:52.516Z,24.13
2022-11-20T00:16:21.012Z,23.20
2022-11-20T00:18:47.579Z,21.85
2022-11-20T00:21:14.839Z,23.48
2022-11-20T00:23:41.263Z,21.92
2022-11-20T00:26:10.151Z,23.55
2022-11-20T00:28:36.650Z,21.65
2022-11-20T00:31:07.987Z,22.85
2022-11-20T00:33:35.025Z,21.65
2022-11-20T00:36:05.769Z,22.13
2022-11-20T00:38:32.709Z,22.60
2022-11-20T00:41:00.361Z,22.73
2022-11-20T00:43:27.097Z,22.27
2022-11-20T00:46:00.874Z,23.13
2022-11-20T00:48:27.658Z,22.98
2022-11-20T00:50:54.320Z,24.23
2022-11-20T00:53:21.052Z,22.27
2022-11-20T00:55:57.535Z,23.13
2022-11-20T00:58:25.065Z,23.38
2022-11-20T01:00:51.650Z,24.02
2022-11-20T01:03:24.054Z,24.52
2022-11-20T01:05:52.105Z,23.10
2022-11-20T01:08:18.474Z,24.67
2022-11-20T01:10:44.863Z,24.38
2022-11-20T01:13:29.812Z,26.92
2022-11-20T01:15:56.183Z,24.73
2022-11-20T01:18:22.563Z,27.83
2022-11-20T01:20:48.915Z,24.48
2022-11-20T01:23:15.296Z,25.83
2022-11-20T01:25:41.746Z,25.60
2022-11-20T01:28:08.143Z,26.15
2022-11-20T01:30:34.506Z,25.60
2022-11-20T01:33:00.910Z,25.27
2022-11-20T01:35:27.291Z,27.08
2022-11-20T01:37:53.650Z,27.42
2022-11-20T01:40:20.017Z,25.33
2022-11-20T01:43:13.455Z,26.73
2022-11-20T01:46:00.216Z,25.58
2022-11-20T01:48:31.171Z,26.67
2022-11-20T01:50:58.951Z,25.67
2022-11-20T01:53:30.496Z,25.20
2022-11-20T01:55:58.088Z,23.20
2022-11-20T01:58:29.786Z,23.77
2022-11-20T02:00:56.359Z,23.48
2022-11-20T02:03:22.815Z,24.90
2022-11-20T02:06:06.152Z,23.13
2022-11-20T02:08:33.448Z,23.80
2022-11-20T02:10:59.816Z,24.80
2022-11-20T02:13:44.415Z,21.73
2022-11-20T02:16:26.090Z,23.17
2022-11-20T02:18:53.309Z,23.42
2022-11-20T02:21:25.636Z,23.98
2022-11-20T02:24:05.185Z,24.40
2022-11-20T02:26:35.473Z,23.75
2022-11-20T02:29:03.808Z,21.92
2022-11-20T02:31:30.280Z,23.50
2022-11-20T02:33:57.949Z,23.55
2022-11-20T02:36:25.471Z,24.27
2022-11-20T02:38:51.882Z,25.65
2022-11-20T02:41:18.244Z,23.92
2022-11-20T02:43:44.630Z,24.02
2022-11-20T02:46:11.062Z,23.67
2022-11-20T02:48:37.590Z,24.35
2022-11-20T02:51:04.001Z,24.05
2022-11-20T02:53:30.416Z,28.08
2022-11-20T02:55:56.956Z,25.80
2022-11-20T02:58:23.364Z,25.45
2022-11-20T03:00:49.735Z,26.75
2022-11-20T03:03:16.104Z,25.45
2022-11-20T03:05:42.467Z,24.73
2022-11-20T03:08:08.834Z,25.08
2022-11-20T03:10:35.216Z,25.10
2022-11-20T03:13:01.570Z,24.33
2022-11-20T03:15:27.928Z,25.52
2022-11-20T03:17:56.086Z,25.73
2022-11-20T03:20:23.005Z,27.98
2022-11-20T03:22:49.376Z,26.60
2022-11-20T03:25:15.839Z,25.48
2022-11-20T03:27:42.212Z,25.08
2022-11-20T03:30:09.208Z,25.70
2022-11-20T03:32:35.577Z,24.48
2022-11-20T03:35:01.951Z,24.27
2022-11-20T03:37:28.313Z,24.42
2022-11-20T03:39:54.674Z,22.90
2022-11-20T03:42:39.656Z,32.80
2022-11-20T03:45:06.463Z,25.77
2022-11-20T03:47:32.830Z,28.17
2022-11-20T03:49:59.195Z,24.92
2022-11-20T03:52:25.566Z,23.98
2022-11-20T03:54:51.946Z,24.83
2022-11-20T03:57:18.337Z,22.98
2022-11-20T03:59:44.732Z,25.58
2022-11-20T04:02:11.182Z,24.27
2022-11-20T04:04:37.583Z,24.10
2022-11-20T04:07:04.945Z,24.05
2022-11-20T04:09:31.325Z,23.45
2022-11-20T04:11:57.703Z,22.35
2022-11-20T04:14:24.124Z,23.20
2022-11-20T04:16:50.524Z,23.88
2022-11-20T04:19:17.426Z,22.58
2022-11-20T04:21:44.966Z,24.00
2022-11-20T04:24:11.490Z,24.17
2022-11-20T04:26:38.566Z,34.55
2022-11-20T04:29:05.145Z,29.15
2022-11-20T04:31:35.520Z,25.58
2022-11-20T04:34:03.344Z,25.17
2022-11-20T04:36:30.768Z,22.85
2022-11-20T04:38:59.096Z,23.58
2022-11-20T04:41:31.281Z,24.77
2022-11-20T04:44:04.286Z,24.08
2022-11-20T04:46:39.963Z,23.48
2022-11-20T04:49:06.668Z,24.23
2022-11-20T04:51:33.541Z,24.38
2022-11-20T04:53:59.956Z,23.83
2022-11-20T04:56:26.600Z,23.70
2022-11-20T04:58:53.331Z,23.50
2022-11-20T05:01:22.310Z,23.17
2022-11-20T05:03:49.156Z,24.38
2022-11-20T05:06:17.366Z,23.27
2022-11-20T05:08:43.953Z,22.85
2022-11-20T05:11:12.958Z,22.88
2022-11-20T05:13:39.738Z,22.67
2022-11-20T05:16:07.851Z,25.35
2022-11-20T05:18:34.832Z,23.88
2022-11-20T05:21:01.489Z,24.13
2022-11-20T05:23:30.951Z,24.40
2022-11-20T05:25:59.366Z,23.88
2022-11-20T05:28:27.253Z,24.27
2022-11-20T05:30:53.628Z,24.15
2022-11-20T05:33:20.143Z,24.35
2022-11-20T05:35:46.670Z,24.40
2022-11-20T05:38:13.142Z,24.55
2022-11-20T05:40:39.547Z,24.08
2022-11-20T05:43:05.923Z,25.85
2022-11-20T05:45:32.488Z,24.42
2022-11-20T05:48:01.022Z,23.38
2022-11-20T05:50:28.447Z,27.13
2022-11-20T05:52:54.892Z,23.70
2022-11-20T05:55:21.260Z,24.25
2022-11-20T05:57:47.662Z,25.45
2022-11-20T06:00:14.642Z,24.85
2022-11-20T06:02:41.078Z,24.10
2022-11-20T06:05:07.901Z,23.73
2022-11-20T06:07:34.459Z,24.15
2022-11-20T06:10:00.875Z,25.25
2022-11-20T06:12:27.291Z,25.05
2022-11-20T06:14:53.696Z,23.40
2022-11-20T06:17:20.064Z,25.13
2022-11-20T06:19:46.419Z,25.13
2022-11-20T06:22:12.799Z,25.83
2022-11-20T06:24:39.179Z,25.52
2022-11-20T06:27:05.678Z,25.10
2022-11-20T06:29:34.077Z,26.42
2022-11-20T06:32:00.807Z,25.40
2022-11-20T06:34:27.212Z,24.90
2022-11-20T06:36:53.586Z,24.95
2022-11-20T06:39:20.366Z,24.15
2022-11-20T06:41:47.089Z,24.40
2022-11-20T06:44:13.459Z,23.55
2022-11-20T06:46:39.821Z,25.77
2022-11-20T06:49:06.776Z,24.67
2022-11-20T06:51:33.259Z,23.83
2022-11-20T06:53:59.649Z,24.15
2022-11-20T06:56:26.023Z,22.63
2022-11-20T06:58:52.410Z,23.52
2022-11-20T07:01:18.908Z,23.60
2022-11-20T07:03:48.032Z,25.65
2022-11-20T07:06:17.791Z,26.45
2022-11-20T07:08:44.167Z,25.77
2022-11-20T07:11:12.892Z,26.33
2022-11-20T07:13:39.266Z,22.85
2022-11-20T07:16:08.296Z,24.15
2022-11-20T07:18:34.768Z,24.20
2022-11-20T07:21:06.055Z,24.45
2022-11-20T07:23:32.699Z,31.50
2022-11-20T07:25:59.342Z,30.65
2022-11-20T07:28:25.705Z,29.23
2022-11-20T07:30:52.661Z,25.83
2022-11-20T07:33:19.459Z,24.20
2022-11-20T07:35:46.800Z,24.85
2022-11-20T07:38:13.180Z,24.88
2022-11-20T07:40:39.547Z,26.02
2022-11-20T07:43:05.937Z,23.77
2022-11-20T07:45:32.311Z,23.88
2022-11-20T07:47:58.672Z,23.55
2022-11-20T07:50:25.244Z,24.27
2022-11-20T07:52:51.718Z,22.40
2022-11-20T07:55:18.177Z,24.42
2022-11-20T07:57:44.643Z,24.48
2022-11-20T08:00:12.496Z,24.35
2022-11-20T08:02:40.423Z,24.48
2022-11-20T08:05:08.087Z,22.63
2022-11-20T08:07:41.577Z,23.45
2022-11-20T08:10:09.885Z,23.98
2022-11-20T08:12:55.004Z,23.85
2022-11-20T08:15:21.544Z,25.02
2022-11-20T08:18:08.403Z,23.85
2022-11-20T08:20:35.740Z,23.30
2022-11-20T08:23:03.302Z,24.38
2022-11-20T08:25:30.563Z,24.92
2022-11-20T08:28:11.564Z,23.80
2022-11-20T08:30:45.167Z,24.52
2022-11-20T08:33:11.574Z,24.30
2022-11-20T08:35:39.103Z,23.30
2022-11-20T08:38:06.179Z,26.50
2022-11-20T08:40:33.114Z,25.65
2022-11-20T08:42:59.558Z,26.27
2022-11-20T08:45:29.692Z,25.90
2022-11-20T08:48:03.945Z,26.02
2022-11-20T08:50:32.550Z,25.48
2022-11-20T08:53:04.372Z,28.52
2022-11-20T08:55:30.743Z,28.13
2022-11-20T08:57:57.108Z,29.15
2022-11-20T09:00:23.540Z,31.65
2022-11-20T09:02:49.923Z,29.67
2022-11-20T09:05:16.397Z,31.92
2022-11-20T09:07:43.083Z,29.83
2022-11-20T09:10:23.554Z,31.60
2022-11-20T09:12:52.507Z,31.67
2022-11-20T09:15:19.542Z,34.17
2022-11-20T09:17:53.313Z,31.42
2022-11-20T09:20:19.956Z,30.40
2022-11-20T09:22:46.378Z,32.38
2022-11-20T09:25:12.910Z,33.50
2022-11-20T09:27:39.296Z,33.60
2022-11-20T09:30:06.347Z,34.90
2022-11-20T09:32:32.707Z,33.67
2022-11-20T09:37:30.357Z,31.27
2022-11-20T09:39:56.936Z,32.60
2022-11-20T09:42:28.337Z,32.47
2022-11-20T09:45:06.807Z,32.47
2022-11-20T09:47:55.701Z,30.20
2022-11-20T09:50:38.091Z,29.83
2022-11-20T09:53:32.351Z,29.27
2022-11-20T09:56:02.307Z,31.77
2022-11-20T09:58:38.523Z,31.02
2022-11-20T10:01:14.299Z,32.40
2022-11-20T10:04:05.425Z,31.55
2022-11-20T10:06:34.052Z,31.80
2022-11-20T10:09:12.545Z,29.90
2022-11-20T10:12:05.349Z,27.27
2022-11-20T10:14:57.918Z,23.85
2022-11-20T10:17:45.999Z,23.65
2022-11-20T10:20:36.165Z,23.13
2022-11-20T10:23:25.648Z,25.23
2022-11-20T10:26:40.163Z,25.33
2022-11-20T10:29:17.973Z,25.15
2022-11-20T10:31:51.922Z,21.17
2022-11-20T10:34:34.598Z,23.98
2022-11-20T10:37:10.886Z,22.20
2022-11-20T10:39:48.932Z,23.73
2022-11-20T10:42:20.533Z,20.70
2022-11-20T10:45:05.796Z,22.08
2022-11-20T10:47:32.835Z,19.02
2022-11-20T10:50:04.605Z,21.27
2022-11-20T10:52:59.309Z,21.85
2022-11-20T10:55:51.855Z,21.15
2022-11-20T11:00:47.606Z,20.55
2022-11-20T11:03:30.257Z,21.52
2022-11-20T11:06:07.544Z,21.27
2022-11-20T11:08:37.552Z,18.80
2022-11-20T11:11:24.538Z,19.70
2022-11-20T11:13:51.554Z,19.25
2022-11-20T11:16:28.141Z,20.33
2022-11-20T11:19:11.483Z,21.80
2022-11-20T11:21:42.224Z,21.48
2022-11-20T11:24:40.947Z,20.95
2022-11-20T11:27:18.407Z,23.17
2022-11-20T11:29:45.486Z,21.90
2022-11-20T11:32:19.291Z,21.38
2022-11-20T11:34:45.689Z,14.63
2022-11-20T11:37:17.727Z,12.45
2022-11-20T11:39:44.560Z,12.63
2022-11-20T11:42:18.555Z,12.40
2022-11-20T11:45:05.129Z,10.93
2022-11-20T11:47:38.282Z,11.23
2022-11-20T11:50:10.728Z,12.15
2022-11-20T11:52:52.279Z,11.70
2022-11-20T11:55:31.019Z,12.45
2022-11-20T11:58:31.681Z,12.57
2022-11-20T12:01:01.828Z,12.05
2022-11-20T12:03:42.632Z,12.85
2022-11-20T12:06:14.738Z,13.20
2022-11-20T12:08:51.951Z,12.63
2022-11-20T12:11:25.545Z,12.25
2022-11-20T12:13:56.430Z,13.48
2022-11-20T12:16:22.877Z,13.57
2022-11-20T12:18:51.961Z,14.07
2022-11-20T12:21:46.146Z,14.60
2022-11-20T12:24:38.609Z,14.77
2022-11-20T12:27:29.811Z,15.07
2022-11-20T12:30:04.545Z,14.43
2022-11-20T12:33:08.233Z,14.65
2022-11-20T12:36:03.541Z,13.88
2022-11-20T12:38:35.705Z,14.93
2022-11-20T12:41:42.684Z,14.80
2022-11-20T12:44:40.222Z,16.27
2022-11-20T12:47:25.219Z,15.75
2022-11-20T12:50:11.841Z,16.60
2022-11-20T12:52:43.812Z,14.07
2022-11-20T12:55:15.835Z,16.08
2022-11-20T12:57:50.708Z,13.70
2022-11-20T13:00:24.154Z,14.63
2022-11-20T13:03:26.029Z,17.02
2022-11-20T13:06:13.322Z,17.27
2022-11-20T13:08:41.790Z,16.00
2022-11-20T13:11:19.276Z,18.02
2022-11-20T13:14:03.938Z,15.40
2022-11-20T13:16:48.520Z,15.32
2022-11-20T13:19:17.141Z,12.85
2022-11-20T13:21:52.482Z,13.40
2022-11-20T13:24:26.985Z,14.75
2022-11-20T13:27:08.652Z,15.13
2022-11-20T13:29:37.068Z,14.55
2022-11-20T13:32:07.799Z,13.57
2022-11-20T13:34:36.258Z,15.35
2022-11-20T13:37:04.671Z,14.27
2022-11-20T13:39:35.809Z,16.33
2022-11-20T13:42:21.678Z,14.93
2022-11-20T13:45:04.228Z,16.08
2022-11-20T13:49:59.676Z,16.10
2022-11-20T13:52:44.779Z,17.70
2022-11-20T13:55:29.892Z,19.70
2022-11-20T13:58:11.503Z,20.35
2022-11-20T14:00:45.933Z,18.50
2022-11-20T14:03:51.157Z,28.35
2022-11-20T14:06:45.174Z,20.98
2022-11-20T14:09:27.589Z,20.95
2022-11-20T14:11:54.001Z,21.17
2022-11-20T14:14:23.306Z,19.60
2022-11-20T14:16:51.000Z,20.90
2022-11-20T14:19:20.346Z,20.27
2022-11-20T14:21:54.287Z,20.48
2022-11-20T14:24:22.992Z,21.67
2022-11-20T14:26:51.401Z,22.60
2022-11-20T14:29:24.395Z,22.83
2022-11-20T14:31:54.974Z,22.88
2022-11-20T14:34:24.537Z,24.55
2022-11-20T14:36:58.279Z,24.10
2022-11-20T14:39:30.261Z,23.95
2022-11-20T14:41:56.644Z,25.10
2022-11-20T14:44:28.277Z,25.08
2022-11-20T14:46:56.419Z,24.92
2022-11-20T14:49:22.976Z,23.67
2022-11-20T14:52:02.480Z,23.83
2022-11-20T14:54:30.080Z,24.27
2022-11-20T14:56:57.131Z,23.65
2022-11-20T14:59:28.307Z,23.40
2022-11-20T15:02:03.437Z,21.83
2022-11-20T15:04:30.548Z,22.08
2022-11-20T15:06:58.908Z,22.45
2022-11-20T15:09:25.440Z,21.60
2022-11-20T15:11:57.273Z,23.58
2022-11-20T15:14:25.354Z,21.77
2022-11-20T15:16:52.424Z,19.67
2022-11-20T15:19:24.042Z,22.45
2022-11-20T15:21:50.753Z,21.73
2022-11-20T15:24:17.405Z,20.80
2022-11-20T15:26:44.232Z,21.23
2022-11-20T15:29:15.743Z,21.77
2022-11-20T15:31:44.144Z,21.98
2022-11-20T15:34:14.824Z,23.88
2022-11-20T15:36:41.555Z,24.00
2022-11-20T15:39:08.623Z,22.58
2022-11-20T15:41:35.930Z,24.83
2022-11-20T15:44:03.037Z,22.75
2022-11-20T15:46:33.742Z,23.33
2022-11-20T15:49:00.853Z,22.83
2022-11-20T15:51:32.580Z,24.13
2022-11-20T15:53:59.282Z,22.55
2022-11-20T15:56:26.382Z,23.35
2022-11-20T15:58:52.879Z,22.63
2022-11-20T16:01:22.865Z,22.77
2022-11-20T16:03:49.704Z,22.40
2022-11-20T16:06:17.168Z,23.05
2022-11-20T16:08:43.739Z,22.13
2022-11-20T16:11:15.062Z,23.35
2022-11-20T16:14:01.029Z,24.23
2022-11-20T16:16:30.996Z,24.45
2022-11-20T16:18:57.965Z,23.40
2022-11-20T16:21:33.489Z,25.67
2022-11-20T16:24:01.285Z,24.17
2022-11-20T16:26:28.289Z,23.27
2022-11-20T16:28:55.180Z,25.23
2022-11-20T16:31:22.439Z,26.70
2022-11-20T16:33:53.380Z,28.98
2022-11-20T16:36:20.967Z,31.13
2022-11-20T16:38:47.773Z,28.42
2022-11-20T16:41:14.289Z,28.17
2022-11-20T16:43:51.620Z,28.77
2022-11-20T16:46:20.464Z,29.08
2022-11-20T16:48:57.149Z,26.25
2022-11-20T16:51:24.232Z,25.52
2022-11-20T16:53:50.942Z,26.60
2022-11-20T16:56:19.604Z,25.80
2022-11-20T16:58:48.430Z,26.20
2022-11-20T17:01:17.929Z,27.33
2022-11-20T17:03:45.594Z,27.33
2022-11-20T17:06:12.825Z,27.35
2022-11-20T17:08:39.431Z,26.88
2022-11-20T17:11:07.515Z,27.50
2022-11-20T17:13:39.560Z,26.63
2022-11-20T17:18:36.838Z,29.35
2022-11-20T17:21:05.363Z,26.20
2022-11-20T17:23:33.109Z,29.83
2022-11-20T17:26:04.383Z,28.48
2022-11-20T17:28:31.866Z,29.27
2022-11-20T17:31:07.236Z,28.88
2022-11-20T17:33:35.349Z,28.05
2022-11-20T17:36:01.804Z,31.42
2022-11-20T17:38:28.481Z,35.38
2022-11-20T17:41:09.347Z,33.67
2022-11-20T17:43:39.073Z,31.50
2022-11-20T17:46:12.652Z,30.75
2022-11-20T17:48:42.292Z,29.90
2022-11-20T17:51:10.838Z,31.10
2022-11-20T17:53:39.152Z,31.13
2022-11-20T17:56:24.165Z,31.88
2022-11-20T17:58:50.818Z,33.80
2022-11-20T18:01:18.365Z,35.22
2022-11-20T18:03:45.307Z,39.20
2022-11-20T18:06:20.312Z,36.22
2022-11-20T18:08:47.401Z,37.78
2022-11-20T18:11:19.543Z,34.75
2022-11-20T18:14:06.546Z,34.92
2022-11-20T18:16:35.323Z,34.22
2022-11-20T18:19:01.852Z,31.95
2022-11-20T18:21:29.911Z,32.95
2022-11-20T18:23:56.555Z,32.25
2022-11-20T18:26:23.956Z,30.92
2022-11-20T18:28:51.129Z,31.13
2022-11-20T18:31:17.833Z,31.50
2022-11-20T18:33:44.374Z,34.20
2022-11-20T18:36:18.450Z,32.88
2022-11-20T18:38:46.753Z,32.83
2022-11-20T18:41:33.835Z,34.20
2022-11-20T18:44:20.107Z,33.55
2022-11-20T18:46:46.634Z,31.35
2022-11-20T18:49:13.360Z,33.90
2022-11-20T18:51:40.481Z,32.60
2022-11-20T18:54:07.422Z,33.40
2022-11-20T18:56:36.658Z,33.58
2022-11-20T18:59:04.690Z,32.17
2022-11-20T19:01:31.476Z,31.33
2022-11-20T19:03:58.573Z,33.22
2022-11-20T19:06:25.594Z,33.33
2022-11-20T19:08:52.743Z,34.10
2022-11-20T19:11:19.545Z,34.03
2022-11-20T19:13:46.129Z,37.08
2022-11-20T19:16:17.934Z,36.35
2022-11-20T19:18:45.213Z,36.80
2022-11-20T19:21:14.094Z,35.55
2022-11-20T19:23:40.725Z,37.50
2022-11-20T19:26:07.686Z,45.97
2022-11-20T19:28:34.925Z,40.85
2022-11-20T19:31:09.164Z,41.25
2022-11-20T19:33:35.802Z,58.33
2022-11-20T19:36:12.572Z,39.55
2022-11-20T19:38:43.709Z,38.95
2022-11-20T19:41:14.881Z,39.60
2022-11-20T19:43:41.504Z,38.17
2022-11-20T19:46:07.860Z,35.95
2022-11-20T19:48:35.938Z,37.28
2022-11-20T19:51:13.952Z,37.22
2022-11-20T19:53:40.618Z,37.13
2022-11-20T19:56:08.283Z,35.95
2022-11-20T19:58:35.442Z,33.63
2022-11-20T20:01:07.807Z,38.05
2022-11-20T20:06:05.136Z,35.15
2022-11-20T20:08:32.074Z,34.67
2022-11-20T20:10:59.748Z,34.90
2022-11-20T20:13:26.727Z,33.25
2022-11-20T20:15:53.220Z,35.58
2022-11-20T20:18:19.587Z,36.65
2022-11-20T20:20:46.055Z,34.78
2022-11-20T20:23:12.501Z,34.22
2022-11-20T20:25:38.968Z,32.60
2022-11-20T20:28:05.362Z,32.60
2022-11-20T20:30:31.740Z,32.55
2022-11-20T20:32:58.144Z,33.10
2022-11-20T20:35:24.768Z,33.25
2022-11-20T20:37:51.262Z,37.00
2022-11-20T20:40:18.939Z,32.75
2022-11-20T20:42:45.347Z,32.90
2022-11-20T20:45:12.047Z,32.13
2022-11-20T20:47:39.756Z,34.97
2022-11-20T20:50:08.819Z,36.47
2022-11-20T20:52:35.824Z,32.88
2022-11-20T20:55:02.355Z,33.13
2022-11-20T20:57:28.814Z,35.22
2022-11-20T20:59:57.761Z,32.13
2022-11-20T21:02:24.423Z,29.98
2022-11-20T21:04:51.018Z,32.13
2022-11-20T21:07:18.259Z,31.30
2022-11-20T21:09:45.014Z,29.48
2022-11-20T21:12:11.600Z,32.08
2022-11-20T21:14:37.959Z,29.92
2022-11-20T21:17:04.348Z,28.70
2022-11-20T21:19:32.082Z,29.33
2022-11-20T21:22:04.374Z,28.02
2022-11-20T21:27:02.780Z,24.75
2022-11-20T21:29:30.007Z,25.13
2022-11-20T21:31:57.343Z,26.65
2022-11-20T21:34:25.117Z,28.38
2022-11-20T21:36:51.920Z,28.48
2022-11-20T21:39:18.866Z,26.80
2022-11-20T21:41:45.239Z,26.88
2022-11-20T21:44:30.573Z,28.88
2022-11-20T21:46:58.021Z,29.35
2022-11-20T21:49:24.603Z,27.90
2022-11-20T21:51:51.179Z,29.48
2022-11-20T21:54:17.644Z,30.40
2022-11-20T21:56:44.008Z,31.63
2022-11-20T21:59:12.711Z,31.38
2022-11-20T22:01:39.181Z,31.15
2022-11-20T22:04:07.649Z,30.60
2022-11-20T22:06:34.736Z,30.63
2022-11-20T22:09:02.080Z,30.80
2022-11-20T22:11:28.476Z,32.42
2022-11-20T22:14:13.427Z,34.65
2022-11-20T22:16:39.890Z,33.50
2022-11-20T22:19:06.879Z,31.08
2022-11-20T22:21:34.012Z,33.63
2022-11-20T22:24:00.839Z,33.03
2022-11-20T22:26:29.394Z,32.13
2022-11-20T22:28:57.211Z,30.30
2022-11-20T22:31:26.639Z,29.00
2022-11-20T22:33:53.359Z,29.42
2022-11-20T22:36:28.393Z,29.58
2022-11-20T22:38:55.415Z,29.23
2022-11-20T22:41:25.066Z,28.67
2022-11-20T22:43:58.006Z,28.10
2022-11-20T22:46:25.629Z,29.15
2022-11-20T22:48:56.814Z,29.15
2022-11-20T22:51:25.408Z,31.23
2022-11-20T22:53:52.110Z,33.08
2022-11-20T22:56:18.910Z,30.48
2022-11-20T22:58:47.593Z,29.67
2022-11-20T23:01:24.082Z,32.65
2022-11-20T23:04:01.741Z,31.00
2022-11-20T23:06:28.884Z,30.38
2022-11-20T23:08:55.482Z,31.30
2022-11-20T23:11:27.370Z,31.77
2022-11-20T23:14:02.053Z,30.45
2022-11-20T23:16:31.330Z,29.65
2022-11-20T23:19:09.065Z,30.58
2022-11-20T23:21:36.848Z,29.55
2022-11-20T23:24:04.132Z,29.35
2022-11-20T23:26:33.100Z,30.08
2022-11-20T23:28:59.952Z,28.10
2022-11-20T23:31:28.531Z,27.65
2022-11-20T23:33:54.907Z,28.00
2022-11-20T23:36:21.387Z,29.42
2022-11-20T23:38:47.768Z,28.05
2022-11-20T23:41:14.531Z,29.40
2022-11-20T23:43:40.934Z,28.00
2022-11-20T23:46:07.471Z,28.38
2022-11-20T23:48:35.896Z,27.98
2022-11-20T23:51:03.003Z,26.98
2022-11-20T23:53:29.544Z,26.40
2022-11-20T23:55:58.060Z,27.05
2022-11-20T23:58:25.844Z,27.40
